Time;durP1;ratioP1;P1;durP2;ratioP2;P2;SDS_P1;SDS_P2;PMS_P1;PMS_P2;Temp;Humidity;BMP_temperature;BMP_pressure;BME280_temperature;BME280_humidity;BME280_pressure;Samples;Min_cycle;Max_cycle;Signal;HPM_P1;HPM_P2
2023/01/10 00:02:17;;;;;;;0.40;0.20;;;6.10;99.90;;;;;;5074217;28;20796;-48
2023/01/10 00:04:45;;;;;;;0.40;0.20;;;6.10;99.90;;;;;;5073858;28;20730;-43
2023/01/10 00:07:12;;;;;;;0.70;0.20;;;6.20;99.90;;;;;;5074216;28;20472;-46
2023/01/10 00:09:40;;;;;;;0.40;0.20;;;6.10;99.90;;;;;;5070213;28;20466;-47
2023/01/10 00:14:52;;;;;;;0.50;0.28;;;5.90;99.90;;;;;;5074103;28;20415;-47
2023/01/10 00:17:21;;;;;;;0.50;0.20;;;6.00;99.90;;;;;;5072415;28;20501;-51
2023/01/10 00:19:49;;;;;;;0.40;0.20;;;6.00;99.90;;;;;;5070640;28;20832;-51
2023/01/10 00:22:23;;;;;;;0.60;0.20;;;5.90;99.90;;;;;;5073500;28;20415;-47
2023/01/10 00:24:51;;;;;;;0.40;0.20;;;5.90;99.90;;;;;;5073574;28;20719;-49
2023/01/10 00:27:21;;;;;;;0.35;0.20;;;6.10;99.90;;;;;;5072990;28;20457;-47
2023/01/10 00:29:51;;;;;;;0.40;0.20;;;6.00;99.90;;;;;;5073867;28;20518;-48
2023/01/10 00:32:18;;;;;;;0.40;0.20;;;6.20;99.90;;;;;;5072598;28;20411;-48
2023/01/10 00:34:46;;;;;;;0.40;0.20;;;6.30;99.90;;;;;;5073083;28;21139;-47
2023/01/10 00:37:14;;;;;;;0.50;0.20;;;6.30;99.90;;;;;;5072085;28;20947;-46
2023/01/10 00:39:41;;;;;;;0.40;0.20;;;6.40;99.90;;;;;;5073367;28;20488;-49
2023/01/10 00:44:55;;;;;;;0.40;0.20;;;6.30;99.90;;;;;;5070778;28;20497;-48
2023/01/10 00:47:22;;;;;;;0.40;0.20;;;6.20;99.90;;;;;;5073383;28;20432;-51
2023/01/10 00:49:49;;;;;;;0.47;0.20;;;6.20;99.90;;;;;;5073802;28;20463;-49
2023/01/10 00:52:18;;;;;;;0.30;0.20;;;6.20;99.90;;;;;;5073000;28;20847;-51
2023/01/10 00:54:45;;;;;;;0.50;0.20;;;6.20;99.90;;;;;;5068008;28;20471;-48
2023/01/10 00:57:12;;;;;;;0.30;0.20;;;6.20;99.90;;;;;;5073830;28;20534;-50
2023/01/10 00:59:39;;;;;;;0.40;0.20;;;6.30;99.90;;;;;;5077637;28;20525;-52
2023/01/10 01:02:07;;;;;;;0.40;0.20;;;6.40;99.90;;;;;;5075946;28;20839;-48
2023/01/10 01:04:34;;;;;;;0.40;0.20;;;6.30;99.90;;;;;;5075404;28;20526;-48
2023/01/10 01:07:02;;;;;;;0.40;0.20;;;6.50;99.90;;;;;;5075655;28;21066;-48
2023/01/10 01:09:31;;;;;;;0.50;0.20;;;6.50;99.90;;;;;;5075838;28;20526;-44
2023/01/10 01:11:58;;;;;;;0.40;0.20;;;6.60;99.90;;;;;;5075252;28;20432;-47
2023/01/10 01:14:25;;;;;;;0.60;0.20;;;6.70;99.90;;;;;;5074679;28;20525;-46
2023/01/10 01:16:53;;;;;;;1.00;0.20;;;6.80;99.90;;;;;;5076417;28;20520;-47
2023/01/10 01:19:20;;;;;;;0.57;0.30;;;6.90;99.90;;;;;;5076210;28;20518;-48
2023/01/10 01:21:47;;;;;;;0.50;0.30;;;6.80;99.90;;;;;;5073296;28;20490;-50
2023/01/10 01:24:14;;;;;;;0.50;0.20;;;6.70;99.90;;;;;;5077120;28;20539;-46
2023/01/10 01:26:44;;;;;;;0.50;0.20;;;6.70;99.90;;;;;;5076219;28;20763;-51
2023/01/10 01:29:11;;;;;;;0.40;0.20;;;6.60;99.90;;;;;;5076421;28;20439;-48
2023/01/10 01:31:38;;;;;;;0.50;0.20;;;6.60;99.90;;;;;;5073170;28;20522;-50
2023/01/10 01:34:06;;;;;;;0.40;0.20;;;6.60;99.90;;;;;;5076296;28;20514;-50
2023/01/10 01:36:33;;;;;;;0.70;0.20;;;6.50;99.90;;;;;;5075982;28;20511;-48
2023/01/10 01:39:00;;;;;;;0.30;0.20;;;6.50;99.90;;;;;;5075699;28;20428;-45
2023/01/10 01:44:16;;;;;;;0.60;0.20;;;6.40;99.90;;;;;;5077149;28;20457;-47
2023/01/10 01:46:47;;;;;;;0.40;0.20;;;6.40;99.90;;;;;;5077235;28;20898;-47
2023/01/10 01:49:18;;;;;;;0.40;0.20;;;6.30;99.90;;;;;;5075085;28;20525;-47
2023/01/10 01:51:47;;;;;;;0.40;0.20;;;6.30;99.90;;;;;;5075875;28;20804;-50
2023/01/10 01:54:15;;;;;;;0.60;0.20;;;6.30;99.90;;;;;;5077408;28;20463;-49
2023/01/10 01:56:47;;;;;;;0.40;0.10;;;6.30;99.90;;;;;;5076444;28;20819;-49
2023/01/10 01:59:20;;;;;;;0.50;0.10;;;6.30;99.90;;;;;;5072996;28;20466;-47
2023/01/10 02:01:50;;;;;;;0.30;0.10;;;6.40;99.90;;;;;;5076282;28;20414;-46
2023/01/10 02:04:20;;;;;;;0.30;0.10;;;6.40;99.90;;;;;;5074945;28;20522;-52
2023/01/10 02:06:50;;;;;;;0.40;0.10;;;6.30;99.90;;;;;;5073970;28;20547;-51
2023/01/10 02:09:24;;;;;;;0.50;0.20;;;6.40;99.90;;;;;;5076140;28;20518;-48
2023/01/10 02:11:52;;;;;;;0.40;0.20;;;6.40;99.90;;;;;;5076591;28;20522;-49
2023/01/10 02:14:21;;;;;;;0.50;0.20;;;6.50;99.90;;;;;;5076719;28;20487;-47
2023/01/10 02:16:49;;;;;;;0.57;0.15;;;6.40;99.90;;;;;;5074053;28;20470;-46
2023/01/10 02:19:24;;;;;;;0.40;0.20;;;6.50;99.90;;;;;;5076929;28;20720;-47
2023/01/10 02:22:18;;;;;;;0.40;0.20;;;6.40;99.90;;;;;;5076646;28;20451;-49
2023/01/10 02:25:42;;;;;;;0.40;0.20;;;6.50;99.90;;;;;;5075239;28;20505;-49
2023/01/10 02:28:44;;;;;;;0.40;0.20;;;6.50;99.90;;;;;;5020808;28;20504;-45
2023/01/10 02:31:29;;;;;;;0.50;0.20;;;6.20;99.90;;;;;;5056396;28;20505;-47
2023/01/10 02:34:06;;;;;;;0.60;0.30;;;6.20;99.90;;;;;;5055952;28;20520;-46
2023/01/10 02:36:44;;;;;;;0.90;0.30;;;6.20;99.90;;;;;;5073118;28;20506;-43
2023/01/10 02:39:16;;;;;;;0.50;0.20;;;6.20;99.90;;;;;;5076367;28;21002;-43
2023/01/10 02:41:50;;;;;;;0.93;0.30;;;6.20;99.90;;;;;;5076501;28;20788;-44
2023/01/10 02:44:22;;;;;;;0.40;0.20;;;6.20;99.90;;;;;;5074606;28;20553;-43
2023/01/10 02:46:49;;;;;;;0.50;0.20;;;6.20;99.90;;;;;;5075363;28;20499;-45
2023/01/10 02:49:18;;;;;;;0.70;0.28;;;6.00;99.90;;;;;;5075297;28;20923;-44
2023/01/10 02:51:45;;;;;;;0.70;0.20;;;6.10;99.90;;;;;;5076050;28;20439;-46
2023/01/10 02:54:17;;;;;;;0.50;0.20;;;6.10;99.90;;;;;;5069653;28;20808;-46
2023/01/10 02:57:13;;;;;;;0.40;0.20;;;6.10;99.90;;;;;;5076130;28;20518;-45
2023/01/10 03:00:02;;;;;;;0.50;0.20;;;6.10;99.90;;;;;;5075779;28;20450;-46
2023/01/10 03:02:57;;;;;;;0.60;0.20;;;6.10;99.90;;;;;;5074923;28;20511;-51
2023/01/10 03:05:37;;;;;;;0.60;0.20;;;6.00;99.90;;;;;;5075402;28;20445;-47
2023/01/10 03:08:16;;;;;;;0.40;0.20;;;5.90;99.90;;;;;;5074980;28;20419;-51
2023/01/10 03:10:47;;;;;;;0.40;0.20;;;5.90;99.90;;;;;;5073406;28;20433;-44
2023/01/10 03:13:18;;;;;;;0.65;0.20;;;6.10;99.90;;;;;;5074955;28;20521;-46
2023/01/10 03:15:48;;;;;;;0.50;0.30;;;5.90;99.90;;;;;;5075174;28;20483;-44
2023/01/10 03:18:20;;;;;;;0.60;0.30;;;5.80;99.90;;;;;;5075186;28;20419;-52
2023/01/10 03:20:52;;;;;;;0.60;0.30;;;5.80;99.90;;;;;;5067678;28;20437;-47
2023/01/10 03:23:22;;;;;;;0.60;0.30;;;6.00;99.90;;;;;;5074093;28;20427;-47
2023/01/10 03:25:52;;;;;;;0.50;0.30;;;6.10;99.90;;;;;;5074086;28;20773;-50
2023/01/10 03:28:24;;;;;;;1.00;0.40;;;6.20;99.90;;;;;;5074186;28;20506;-46
2023/01/10 03:30:57;;;;;;;0.60;0.40;;;6.20;99.90;;;;;;5068523;28;20532;-46
2023/01/10 03:33:27;;;;;;;0.43;0.30;;;6.10;99.90;;;;;;5074276;28;20437;-46
2023/01/10 03:36:07;;;;;;;0.60;0.40;;;6.20;99.90;;;;;;5074561;28;20906;-47
2023/01/10 03:38:41;;;;;;;1.25;0.40;;;6.20;99.90;;;;;;5072765;28;20437;-46
2023/01/10 03:41:15;;;;;;;1.20;0.50;;;6.10;99.90;;;;;;5074582;28;20495;-45
2023/01/10 03:46:38;;;;;;;1.00;0.40;;;5.90;99.90;;;;;;5074140;28;20414;-47
2023/01/10 03:49:07;;;;;;;1.30;0.40;;;5.80;99.90;;;;;;5068933;28;20515;-46
2023/01/10 03:51:37;;;;;;;1.23;0.40;;;5.80;99.90;;;;;;5074500;28;20431;-45
2023/01/10 03:54:05;;;;;;;0.80;0.40;;;5.90;99.90;;;;;;5074931;28;20467;-49
2023/01/10 03:56:43;;;;;;;1.20;0.40;;;6.00;99.90;;;;;;5073600;28;20514;-47
2023/01/10 03:59:10;;;;;;;1.00;0.40;;;6.00;99.90;;;;;;5074569;28;20428;-48
2023/01/10 04:01:37;;;;;;;0.93;0.30;;;6.10;99.90;;;;;;5074438;28;20444;-50
2023/01/10 04:04:05;;;;;;;0.82;0.40;;;6.10;99.90;;;;;;5075379;28;20510;-47
2023/01/10 04:06:32;;;;;;;0.50;0.30;;;6.10;99.90;;;;;;5070788;28;20485;-50
2023/01/10 04:09:01;;;;;;;0.82;0.30;;;6.10;99.90;;;;;;5075212;28;20495;-46
2023/01/10 04:11:28;;;;;;;0.60;0.30;;;6.10;99.90;;;;;;5073894;28;20432;-47
2023/01/10 04:13:55;;;;;;;0.85;0.30;;;6.10;99.90;;;;;;5075040;28;20526;-47
2023/01/10 04:16:23;;;;;;;1.10;0.30;;;6.10;99.90;;;;;;5072282;28;20884;-50
2023/01/10 04:18:50;;;;;;;0.70;0.30;;;6.00;99.90;;;;;;5074259;28;20518;-48
2023/01/10 04:21:17;;;;;;;0.60;0.30;;;6.00;99.90;;;;;;5074884;28;20795;-45
2023/01/10 04:23:44;;;;;;;1.30;0.40;;;5.80;99.90;;;;;;5071608;28;20506;-47
2023/01/10 04:26:13;;;;;;;0.52;0.30;;;5.80;99.90;;;;;;5062651;28;20523;-49
2023/01/10 04:28:40;;;;;;;0.60;0.30;;;5.80;99.90;;;;;;5074134;28;20427;-50
2023/01/10 04:31:07;;;;;;;1.50;0.40;;;5.80;99.90;;;;;;5074471;28;20427;-50
2023/01/10 04:33:35;;;;;;;0.87;0.40;;;5.90;99.90;;;;;;5072116;28;20555;-51
2023/01/10 04:36:02;;;;;;;0.70;0.30;;;5.90;99.90;;;;;;5076851;28;20514;-47
2023/01/10 04:38:29;;;;;;;1.15;0.40;;;5.90;99.90;;;;;;5077521;28;20785;-45
2023/01/10 04:40:57;;;;;;;0.90;0.30;;;6.00;99.90;;;;;;5077443;28;20443;-46
2023/01/10 04:43:26;;;;;;;1.50;0.33;;;6.00;99.90;;;;;;5076218;28;20534;-48
2023/01/10 04:45:53;;;;;;;0.77;0.35;;;5.90;99.90;;;;;;5076529;28;20473;-49
2023/01/10 04:48:20;;;;;;;1.00;0.40;;;5.90;99.90;;;;;;5077630;28;20522;-49
2023/01/10 04:50:50;;;;;;;0.80;0.30;;;5.90;99.90;;;;;;5074974;28;20911;-51
2023/01/10 04:53:18;;;;;;;2.15;0.40;;;5.80;99.90;;;;;;5077413;28;20871;-53
2023/01/10 04:55:45;;;;;;;0.95;0.30;;;5.80;99.90;;;;;;5077278;28;20779;-47
2023/01/10 04:58:13;;;;;;;1.20;0.30;;;5.80;99.90;;;;;;5078123;28;20447;-44
2023/01/10 05:00:42;;;;;;;0.60;0.30;;;5.90;99.90;;;;;;5072388;28;20965;-45
2023/01/10 05:03:09;;;;;;;0.85;0.40;;;5.90;99.90;;;;;;5057248;28;20470;-43
2023/01/10 05:05:36;;;;;;;2.00;0.40;;;5.80;99.90;;;;;;5057609;28;20501;-47
2023/01/10 05:08:04;;;;;;;2.08;0.40;;;5.80;99.90;;;;;;5057272;28;20453;-44
2023/01/10 05:10:31;;;;;;;1.30;0.40;;;5.80;99.90;;;;;;5069619;28;20467;-45
2023/01/10 05:12:58;;;;;;;1.70;0.43;;;5.80;99.90;;;;;;5076490;28;20431;-51
2023/01/10 05:15:25;;;;;;;1.40;0.40;;;5.80;99.90;;;;;;5077655;28;20843;-47
2023/01/10 05:17:59;;;;;;;1.20;0.50;;;5.70;99.90;;;;;;5076744;28;20506;-46
2023/01/10 05:20:26;;;;;;;2.03;0.50;;;5.80;99.90;;;;;;5074972;28;20518;-50
2023/01/10 05:22:53;;;;;;;3.25;0.40;;;5.90;99.90;;;;;;5077119;28;21029;-50
2023/01/10 05:25:21;;;;;;;2.00;0.40;;;6.00;99.90;;;;;;5077387;28;20494;-48
2023/01/10 05:27:48;;;;;;;0.70;0.40;;;6.10;99.90;;;;;;5075646;28;20466;-46
2023/01/10 05:30:15;;;;;;;1.98;0.40;;;6.20;99.90;;;;;;5076641;28;20518;-45
2023/01/10 05:32:43;;;;;;;2.10;0.52;;;6.10;99.90;;;;;;5076011;28;20427;-49
2023/01/10 05:35:11;;;;;;;1.23;0.50;;;6.10;99.90;;;;;;5077310;28;20517;-50
2023/01/10 05:37:39;;;;;;;2.73;0.40;;;6.10;99.90;;;;;;5075478;28;20471;-47
2023/01/10 05:40:07;;;;;;;2.10;0.40;;;6.10;99.90;;;;;;5076746;28;20517;-49
2023/01/10 05:42:34;;;;;;;1.30;0.40;;;6.10;99.90;;;;;;5076829;28;20448;-45
2023/01/10 05:45:02;;;;;;;1.75;0.50;;;6.10;99.90;;;;;;5077082;28;20463;-46
2023/01/10 05:47:30;;;;;;;0.80;0.30;;;6.20;99.90;;;;;;5075053;28;20431;-46
2023/01/10 05:49:57;;;;;;;2.40;0.40;;;6.30;99.90;;;;;;5076684;28;20424;-47
2023/01/10 05:52:26;;;;;;;1.40;0.40;;;6.20;99.90;;;;;;5076888;28;20431;-48
2023/01/10 05:54:53;;;;;;;0.93;0.32;;;6.20;99.90;;;;;;5075243;28;20478;-49
2023/01/10 05:57:20;;;;;;;0.90;0.40;;;6.20;99.90;;;;;;5076012;28;20809;-49
2023/01/10 05:59:48;;;;;;;1.40;0.40;;;6.10;99.90;;;;;;5076859;28;20427;-49
2023/01/10 06:02:15;;;;;;;2.10;0.40;;;6.10;99.90;;;;;;5076214;28;20483;-47
2023/01/10 06:04:42;;;;;;;1.80;0.40;;;6.10;99.90;;;;;;5073811;28;20942;-51
2023/01/10 06:07:09;;;;;;;0.90;0.40;;;6.00;99.90;;;;;;5076598;28;20502;-49
2023/01/10 06:09:38;;;;;;;1.30;0.32;;;6.20;99.90;;;;;;5075786;28;20455;-45
2023/01/10 06:12:06;;;;;;;3.30;0.40;;;6.10;99.90;;;;;;5075261;28;20423;-47
2023/01/10 06:14:33;;;;;;;1.10;0.40;;;6.00;99.90;;;;;;5072908;28;20489;-47
2023/01/10 06:17:00;;;;;;;1.30;0.30;;;6.10;99.90;;;;;;5075682;28;20849;-48
2023/01/10 06:19:27;;;;;;;1.95;0.38;;;6.20;99.90;;;;;;5075247;28;21001;-49
2023/01/10 06:21:54;;;;;;;1.52;0.40;;;6.30;99.90;;;;;;5073318;28;20515;-50
2023/01/10 06:24:22;;;;;;;1.77;0.40;;;6.50;99.90;;;;;;5074172;28;20459;-50
2023/01/10 06:26:50;;;;;;;1.10;0.30;;;6.40;99.90;;;;;;5074826;28;20451;-51
2023/01/10 06:29:17;;;;;;;1.50;0.30;;;6.20;99.90;;;;;;5074336;28;20467;-45
2023/01/10 06:31:45;;;;;;;2.60;0.40;;;6.30;99.90;;;;;;5072433;28;20439;-45
2023/01/10 06:34:12;;;;;;;1.08;0.40;;;6.20;99.90;;;;;;5074636;28;20518;-50
2023/01/10 06:36:39;;;;;;;1.55;0.40;;;6.00;99.90;;;;;;5074183;28;20550;-48
2023/01/10 06:39:06;;;;;;;0.80;0.40;;;5.80;99.90;;;;;;5074230;28;20526;-44
2023/01/10 06:41:33;;;;;;;0.90;0.40;;;5.80;99.90;;;;;;5070881;28;20534;-46
2023/01/10 06:44:02;;;;;;;1.35;0.38;;;5.70;99.90;;;;;;5072704;28;20522;-45
2023/01/10 06:46:29;;;;;;;1.88;0.50;;;6.00;99.90;;;;;;5073283;28;20455;-47
2023/01/10 06:48:56;;;;;;;0.98;0.40;;;6.20;99.90;;;;;;5071574;28;20455;-45
2023/01/10 06:51:24;;;;;;;1.90;0.30;;;6.30;99.90;;;;;;5067195;28;20423;-50
2023/01/10 06:53:51;;;;;;;3.40;0.30;;;6.50;99.90;;;;;;5072985;28;20469;-48
2023/01/10 06:56:18;;;;;;;1.20;0.40;;;6.50;99.90;;;;;;5072363;28;20610;-48
2023/01/10 06:58:48;;;;;;;0.70;0.30;;;6.60;99.90;;;;;;5072673;28;20967;-46
2023/01/10 07:01:18;;;;;;;1.10;0.30;;;6.50;99.90;;;;;;5052570;28;20516;-49
2023/01/10 07:03:46;;;;;;;0.90;0.30;;;6.80;99.90;;;;;;5054996;28;20453;-46
2023/01/10 07:06:13;;;;;;;1.00;0.30;;;6.90;99.90;;;;;;5055054;28;20417;-48
2023/01/10 07:08:42;;;;;;;0.93;0.40;;;6.70;99.90;;;;;;5062463;28;20530;-48
2023/01/10 07:11:10;;;;;;;3.00;0.30;;;6.70;99.90;;;;;;5072240;28;20455;-48
2023/01/10 07:13:38;;;;;;;0.80;0.30;;;6.80;99.90;;;;;;5072232;28;20519;-45
2023/01/10 07:16:06;;;;;;;1.20;0.40;;;6.80;99.90;;;;;;5073592;28;20530;-48
2023/01/10 07:18:36;;;;;;;2.30;0.30;;;7.00;99.90;;;;;;5069855;28;20526;-49
2023/01/10 07:21:04;;;;;;;1.67;0.40;;;6.80;99.90;;;;;;5071898;28;20678;-47
2023/01/10 07:23:32;;;;;;;0.90;0.30;;;6.50;99.90;;;;;;5072563;28;20424;-48
2023/01/10 07:26:02;;;;;;;2.70;0.60;;;6.30;99.90;;;;;;5069989;28;20436;-46
2023/01/10 07:28:29;;;;;;;1.48;0.40;;;6.10;99.90;;;;;;5071190;28;20947;-48
2023/01/10 07:30:59;;;;;;;0.73;0.30;;;6.00;99.90;;;;;;5069199;28;20435;-47
2023/01/10 07:33:26;;;;;;;0.90;0.40;;;5.90;99.90;;;;;;5071681;28;20535;-46
2023/01/10 07:35:55;;;;;;;1.60;0.50;;;5.90;99.90;;;;;;5060361;28;20526;-46
2023/01/10 07:38:22;;;;;;;1.50;0.30;;;5.80;99.90;;;;;;5060025;28;20524;-56
2023/01/10 07:40:50;;;;;;;0.90;0.30;;;5.70;99.90;;;;;;5061630;28;20815;-57
2023/01/10 07:43:17;;;;;;;2.33;0.45;;;5.60;99.90;;;;;;5072542;28;20514;-59
2023/01/10 07:45:44;;;;;;;1.65;0.50;;;5.60;99.90;;;;;;5068708;28;20534;-59
2023/01/10 07:48:12;;;;;;;3.75;0.60;;;5.60;99.90;;;;;;5072087;28;20423;-58
2023/01/10 07:50:39;;;;;;;2.13;0.50;;;5.50;99.90;;;;;;5072937;28;20484;-58
2023/01/10 07:53:08;;;;;;;0.80;0.40;;;5.50;99.90;;;;;;5069752;28;20528;-58
2023/01/10 07:55:38;;;;;;;1.13;0.30;;;5.60;99.90;;;;;;5071555;28;20907;-58
2023/01/10 07:58:07;;;;;;;1.40;0.37;;;5.60;99.90;;;;;;5072180;28;20446;-58
2023/01/10 08:00:34;;;;;;;1.50;0.40;;;5.60;99.90;;;;;;5073232;28;20424;-58
2023/01/10 08:03:02;;;;;;;3.42;0.40;;;5.50;99.90;;;;;;5064335;28;20556;-59
2023/01/10 08:05:29;;;;;;;1.00;0.40;;;5.60;99.90;;;;;;5052010;28;20504;-59
2023/01/10 08:07:58;;;;;;;1.60;0.40;;;5.60;99.90;;;;;;5052176;28;20505;-59
2023/01/10 08:10:27;;;;;;;1.33;0.40;;;5.70;99.90;;;;;;5058267;28;20463;-59
2023/01/10 08:12:55;;;;;;;2.20;0.38;;;5.60;99.90;;;;;;5069261;28;20522;-58
2023/01/10 08:15:22;;;;;;;1.30;0.40;;;5.60;99.90;;;;;;5071144;28;20455;-58
2023/01/10 08:17:49;;;;;;;2.80;0.50;;;5.60;99.90;;;;;;5071202;28;20754;-59
2023/01/10 08:20:18;;;;;;;1.10;0.50;;;5.60;99.90;;;;;;5071601;28;20427;-59
2023/01/10 08:22:45;;;;;;;1.45;0.40;;;5.70;99.90;;;;;;5070446;28;20804;-59
2023/01/10 08:25:13;;;;;;;1.80;0.40;;;5.70;99.90;;;;;;5072867;28;20467;-57
2023/01/10 08:27:42;;;;;;;2.70;0.47;;;5.80;99.90;;;;;;5073735;28;20420;-58
2023/01/10 08:30:10;;;;;;;1.67;0.38;;;5.80;99.90;;;;;;5063262;28;20534;-59
2023/01/10 08:32:38;;;;;;;1.80;0.40;;;5.80;99.90;;;;;;5067104;28;20544;-53
2023/01/10 08:35:06;;;;;;;1.60;0.40;;;5.80;99.90;;;;;;5054957;28;20447;-55
2023/01/10 08:37:34;;;;;;;1.25;0.40;;;5.80;99.90;;;;;;5068448;28;21068;-53
2023/01/10 08:40:01;;;;;;;1.30;0.40;;;5.80;99.90;;;;;;5066869;28;20526;-56
2023/01/10 08:42:28;;;;;;;2.30;0.40;;;5.80;99.90;;;;;;5072210;28;20446;-54
2023/01/10 08:44:57;;;;;;;0.93;0.35;;;5.90;99.90;;;;;;5070081;28;20514;-55
2023/01/10 08:47:24;;;;;;;1.60;0.40;;;6.00;99.90;;;;;;5065735;28;21023;-54
2023/01/10 08:49:51;;;;;;;0.90;0.30;;;5.90;99.90;;;;;;5069174;28;20525;-55
2023/01/10 08:52:19;;;;;;;1.50;0.40;;;5.90;99.90;;;;;;5072240;28;20507;-54
2023/01/10 08:54:47;;;;;;;1.60;0.40;;;5.90;99.90;;;;;;5070267;28;20684;-54
2023/01/10 08:57:14;;;;;;;1.00;0.40;;;5.90;99.90;;;;;;5071423;28;20434;-55
2023/01/10 08:59:41;;;;;;;2.15;0.43;;;6.00;99.90;;;;;;5070557;28;20514;-54
2023/01/10 09:02:13;;;;;;;2.00;0.45;;;6.10;99.90;;;;;;5069970;28;20511;-54
2023/01/10 09:04:40;;;;;;;2.17;0.40;;;6.10;99.90;;;;;;5051039;28;20456;-55
2023/01/10 09:07:07;;;;;;;1.90;0.50;;;6.20;99.90;;;;;;5067918;28;20494;-52
2023/01/10 09:09:36;;;;;;;2.10;0.40;;;6.10;99.90;;;;;;5065896;28;21027;-54
2023/01/10 09:12:53;;;;;;;2.63;0.60;;;6.20;99.90;;;;;;5064938;28;20506;-52
2023/01/10 09:14:50;;;;;;;6.20;0.80;;;6.50;99.90;;;;;;5067381;28;20418;-55
2023/01/10 09:17:19;;;;;;;3.20;0.60;;;6.40;99.90;;;;;;5068064;28;20519;-54
2023/01/10 09:19:46;;;;;;;1.50;0.50;;;6.30;99.90;;;;;;5071034;28;20530;-52
2023/01/10 09:22:14;;;;;;;3.38;0.60;;;6.30;99.90;;;;;;5074685;28;20419;-49
2023/01/10 09:24:42;;;;;;;2.03;0.40;;;6.30;99.90;;;;;;5072500;28;20952;-52
2023/01/10 09:27:10;;;;;;;1.33;0.50;;;6.30;99.90;;;;;;5070986;28;20810;-48
2023/01/10 09:29:37;;;;;;;0.80;0.40;;;6.20;99.90;;;;;;5063505;28;20466;-52
2023/01/10 09:32:05;;;;;;;1.20;0.40;;;6.10;99.90;;;;;;5055097;28;20788;-51
2023/01/10 09:34:34;;;;;;;2.60;0.50;;;6.00;99.90;;;;;;5063992;28;20439;-49
2023/01/10 09:37:01;;;;;;;2.67;0.50;;;5.90;99.90;;;;;;5072949;28;20455;-48
2023/01/10 09:39:28;;;;;;;2.30;0.40;;;5.90;99.90;;;;;;5075553;28;20431;-51
2023/01/10 09:42:09;;;;;;;1.20;0.40;;;5.80;99.90;;;;;;5071592;28;20555;-50
2023/01/10 09:44:45;;;;;;;1.77;0.50;;;5.90;99.90;;;;;;5067219;28;20512;-52
2023/01/10 09:47:19;;;;;;;1.10;0.40;;;5.90;99.90;;;;;;5054281;28;20490;-49
2023/01/10 09:49:56;;;;;;;1.35;0.50;;;5.90;99.90;;;;;;5061639;28;20972;-46
2023/01/10 09:52:27;;;;;;;1.40;0.50;;;5.90;99.90;;;;;;5073393;28;20801;-49
2023/01/10 09:54:58;;;;;;;1.30;0.50;;;5.90;99.90;;;;;;5073688;28;20526;-51
2023/01/10 09:57:26;;;;;;;1.42;0.50;;;6.00;99.90;;;;;;5056866;28;20520;-50
2023/01/10 09:59:54;;;;;;;1.63;0.50;;;6.10;99.90;;;;;;5055224;28;20907;-48
2023/01/10 10:02:29;;;;;;;2.50;0.60;;;6.00;99.90;;;;;;5054622;28;20432;-47
2023/01/10 10:05:11;;;;;;;2.35;0.60;;;5.90;99.90;;;;;;5053887;28;20726;-49
2023/01/10 10:07:39;;;;;;;1.30;0.50;;;6.10;99.90;;;;;;5062880;28;20534;-45
2023/01/10 10:10:11;;;;;;;1.00;0.60;;;6.10;99.90;;;;;;5074297;28;20506;-46
2023/01/10 10:12:46;;;;;;;1.85;0.60;;;6.20;99.90;;;;;;5073488;28;20465;-45
2023/01/10 10:15:24;;;;;;;2.47;0.70;;;6.30;99.90;;;;;;5073391;28;21006;-46
2023/01/10 10:18:02;;;;;;;0.80;0.40;;;6.30;99.90;;;;;;5072826;28;20514;-49
2023/01/10 10:20:46;;;;;;;1.52;0.50;;;6.40;99.90;;;;;;5073391;28;20506;-47
2023/01/10 10:23:31;;;;;;;2.50;0.50;;;6.40;99.90;;;;;;5073019;28;20459;-48
2023/01/10 10:26:04;;;;;;;1.17;0.40;;;6.50;99.90;;;;;;5073613;28;20510;-50
2023/01/10 10:28:58;;;;;;;1.38;0.50;;;6.50;99.90;;;;;;5074069;28;20463;-48
2023/01/10 10:31:38;;;;;;;1.50;0.50;;;6.60;99.90;;;;;;5073279;28;20926;-47
2023/01/10 10:34:13;;;;;;;0.70;0.40;;;6.60;99.90;;;;;;5074464;28;20526;-51
2023/01/10 10:36:47;;;;;;;2.08;0.60;;;6.60;99.90;;;;;;5073861;28;20518;-49
2023/01/10 10:39:19;;;;;;;1.00;0.40;;;6.60;99.90;;;;;;5072834;28;20928;-49
2023/01/10 10:41:51;;;;;;;1.92;0.40;;;6.70;99.90;;;;;;5073555;28;20874;-50
2023/01/10 10:44:37;;;;;;;2.10;0.50;;;6.80;99.90;;;;;;5072872;28;20727;-48
2023/01/10 10:47:14;;;;;;;0.80;0.40;;;6.80;99.90;;;;;;5072182;28;20424;-45
2023/01/10 10:49:48;;;;;;;1.23;0.40;;;7.00;99.90;;;;;;5072705;28;20431;-50
2023/01/10 10:52:23;;;;;;;0.82;0.35;;;7.10;99.90;;;;;;5073790;28;20511;-47
2023/01/10 10:54:51;;;;;;;2.40;0.80;;;7.00;99.90;;;;;;5073228;28;20863;-47
2023/01/10 10:57:20;;;;;;;2.83;0.60;;;7.10;99.90;;;;;;5071093;28;20541;-50
2023/01/10 10:59:48;;;;;;;1.70;0.50;;;7.10;99.90;;;;;;5072866;28;20459;-49
2023/01/10 11:02:24;;;;;;;1.92;0.40;;;7.10;99.90;;;;;;5074454;28;20719;-47
2023/01/10 11:04:56;;;;;;;1.38;0.40;;;7.30;99.90;;;;;;5073190;28;20419;-49
2023/01/10 11:07:25;;;;;;;2.33;0.60;;;7.40;99.90;;;;;;5056171;28;20437;-50
2023/01/10 11:10:12;;;;;;;1.70;0.40;;;7.50;99.90;;;;;;5053793;28;20440;-49
2023/01/10 11:12:44;;;;;;;0.90;0.30;;;7.50;99.90;;;;;;5051704;28;20425;-46
2023/01/10 11:15:11;;;;;;;1.50;0.40;;;7.30;99.90;;;;;;5051338;28;20432;-50
2023/01/10 11:17:40;;;;;;;1.67;0.40;;;7.50;99.90;;;;;;5054374;28;20425;-47
2023/01/10 11:20:15;;;;;;;1.17;0.40;;;7.70;99.90;;;;;;5052856;28;20444;-50
2023/01/10 11:22:49;;;;;;;0.80;0.40;;;7.80;99.90;;;;;;5060315;28;20518;-49
2023/01/10 11:25:18;;;;;;;1.38;0.30;;;7.70;99.90;;;;;;5069051;28;20473;-48
2023/01/10 11:27:49;;;;;;;1.30;0.40;;;7.40;99.90;;;;;;5073217;28;20502;-49
2023/01/10 11:30:20;;;;;;;2.20;0.50;;;7.20;99.90;;;;;;5059535;28;20491;-46
2023/01/10 11:32:52;;;;;;;1.20;0.50;;;7.50;99.90;;;;;;5053906;28;20425;-52
2023/01/10 11:35:22;;;;;;;1.40;0.40;;;7.50;99.90;;;;;;5062599;28;21066;-49
2023/01/10 11:38:01;;;;;;;1.52;0.40;;;7.50;99.90;;;;;;5071849;28;20824;-49
2023/01/10 11:40:30;;;;;;;1.20;0.40;;;7.40;99.90;;;;;;5072390;28;20803;-48
2023/01/10 11:42:59;;;;;;;0.70;0.40;;;7.40;99.90;;;;;;5064888;28;20455;-45
2023/01/10 11:45:30;;;;;;;2.10;0.50;;;7.40;99.90;;;;;;5066728;28;20518;-47
2023/01/10 11:48:06;;;;;;;1.10;0.40;;;7.50;99.90;;;;;;5062972;28;20496;-46
2023/01/10 11:50:36;;;;;;;1.50;0.40;;;7.70;99.90;;;;;;5071971;28;20431;-48
2023/01/10 11:53:05;;;;;;;1.20;0.37;;;7.70;99.90;;;;;;5071661;28;20447;-50
2023/01/10 11:55:37;;;;;;;1.30;0.40;;;7.60;99.90;;;;;;5071349;28;20518;-47
2023/01/10 11:58:07;;;;;;;1.23;0.30;;;7.60;99.90;;;;;;5070420;28;20506;-51
2023/01/10 12:00:39;;;;;;;0.80;0.30;;;7.60;99.90;;;;;;5071296;28;20433;-46
2023/01/10 12:03:19;;;;;;;0.85;0.40;;;7.60;99.90;;;;;;5072940;28;20419;-46
2023/01/10 12:05:54;;;;;;;1.50;0.30;;;7.40;99.90;;;;;;5074133;28;20511;-47
2023/01/10 12:08:27;;;;;;;1.47;0.40;;;7.30;99.90;;;;;;5070941;28;20516;-46
2023/01/10 12:11:03;;;;;;;2.30;0.68;;;7.40;99.90;;;;;;5070191;28;20468;-51
2023/01/10 12:13:43;;;;;;;0.55;0.30;;;7.80;99.90;;;;;;5070489;28;20532;-51
2023/01/10 12:16:22;;;;;;;2.70;0.40;;;7.80;99.90;;;;;;5069957;28;20849;-48
2023/01/10 12:18:51;;;;;;;0.88;0.40;;;7.60;99.90;;;;;;5070163;28;20530;-47
2023/01/10 12:21:26;;;;;;;1.88;0.40;;;7.40;99.90;;;;;;5071687;28;20506;-51
2023/01/10 12:23:59;;;;;;;1.40;0.30;;;7.30;99.90;;;;;;5071443;28;20855;-47
2023/01/10 12:26:30;;;;;;;1.00;0.40;;;7.50;99.90;;;;;;5071514;28;20530;-46
2023/01/10 12:29:02;;;;;;;1.63;0.30;;;7.60;99.90;;;;;;5062673;28;20466;-47
2023/01/10 12:31:31;;;;;;;2.17;0.40;;;7.60;99.90;;;;;;5065343;28;20518;-51
2023/01/10 12:34:04;;;;;;;2.03;0.30;;;7.70;99.90;;;;;;5062322;28;20870;-50
2023/01/10 12:36:41;;;;;;;1.38;0.30;;;7.80;99.90;;;;;;5067477;28;20786;-47
2023/01/10 12:39:16;;;;;;;1.70;0.30;;;7.80;99.90;;;;;;5071924;28;20510;-51
2023/01/10 12:44:40;;;;;;;0.80;0.30;;;7.70;99.90;;;;;;5068502;28;20403;-47
2023/01/10 12:47:20;;;;;;;1.03;0.30;;;8.00;99.90;;;;;;5072269;28;20435;-50
2023/01/10 12:49:55;;;;;;;1.60;0.30;;;8.30;99.90;;;;;;5072282;28;20751;-50
2023/01/10 12:52:31;;;;;;;0.80;0.20;;;8.50;99.90;;;;;;5071354;28;20486;-51
2023/01/10 12:55:01;;;;;;;0.70;0.30;;;8.60;99.90;;;;;;5072930;28;20944;-49
2023/01/10 12:57:32;;;;;;;0.93;0.30;;;8.60;99.90;;;;;;5075043;28;20523;-50
2023/01/10 13:00:04;;;;;;;1.80;0.30;;;8.60;99.90;;;;;;5076126;28;20423;-50
2023/01/10 13:02:42;;;;;;;0.50;0.30;;;8.50;99.90;;;;;;5075840;28;20514;-53
2023/01/10 13:05:18;;;;;;;0.97;0.30;;;8.40;99.90;;;;;;5074496;28;20492;-58
2023/01/10 13:07:47;;;;;;;1.40;0.20;;;8.50;99.90;;;;;;5073982;28;20451;-58
2023/01/10 13:10:20;;;;;;;1.52;0.50;;;8.40;99.90;;;;;;5075052;28;20510;-58
2023/01/10 13:12:53;;;;;;;1.00;0.30;;;8.10;99.90;;;;;;5072689;28;20759;-58
2023/01/10 13:15:27;;;;;;;1.40;0.35;;;8.10;99.90;;;;;;5073283;28;20433;-58
2023/01/10 13:18:00;;;;;;;0.90;0.30;;;8.10;99.90;;;;;;5073037;28;20426;-58
2023/01/10 13:20:44;;;;;;;0.90;0.30;;;8.20;99.90;;;;;;5073231;28;20514;-58
2023/01/10 13:23:32;;;;;;;2.28;0.30;;;8.10;99.90;;;;;;5070269;28;21019;-58
2023/01/10 13:26:09;;;;;;;1.23;0.30;;;7.90;99.90;;;;;;5070494;28;20467;-59
2023/01/10 13:28:39;;;;;;;1.00;0.40;;;7.90;99.90;;;;;;5071516;28;20510;-58
2023/01/10 13:31:23;;;;;;;0.95;0.30;;;7.90;99.90;;;;;;5072417;28;20895;-58